createdAt,value
2019-03-15T00:02:23.858Z,5.73
2019-03-15T00:04:54.605Z,5.37
2019-03-15T00:07:27.481Z,5.37
2019-03-15T00:09:58.988Z,5.37
2019-03-15T00:15:18.956Z,5.57
2019-03-15T00:17:48.243Z,4.77
2019-03-15T00:20:20.421Z,5.13
2019-03-15T00:22:51.243Z,4.50
2019-03-15T00:25:21.993Z,5.27
2019-03-15T00:27:55.622Z,5.73
2019-03-15T00:30:44.267Z,6.17
2019-03-15T00:33:16.117Z,6.00
2019-03-15T00:35:48.459Z,5.60
2019-03-15T00:38:25.858Z,6.10
2019-03-15T00:40:55.463Z,5.97
2019-03-15T00:43:31.267Z,5.70
2019-03-15T00:46:00.280Z,6.33
2019-03-15T00:48:34.462Z,5.77
2019-03-15T00:51:02.045Z,5.47
2019-03-15T00:53:36.547Z,5.87
2019-03-15T00:56:09.529Z,6.30
2019-03-15T00:58:42.623Z,6.23
2019-03-15T01:01:20.438Z,6.03
2019-03-15T01:03:56.890Z,5.77
2019-03-15T01:06:29.319Z,5.73
2019-03-15T01:09:01.923Z,6.53
2019-03-15T01:11:32.770Z,6.30
2019-03-15T01:14:02.660Z,7.73
2019-03-15T01:16:34.697Z,6.53
2019-03-15T01:22:21.904Z,6.10
2019-03-15T01:24:53.255Z,6.40
2019-03-15T01:27:25.252Z,6.87
2019-03-15T01:29:58.590Z,7.13
2019-03-15T01:32:29.536Z,7.50
2019-03-15T01:34:59.377Z,6.53
2019-03-15T01:37:34.065Z,6.83
2019-03-15T01:40:05.487Z,8.03
2019-03-15T01:42:36.390Z,6.33
2019-03-15T01:45:18.453Z,6.30
2019-03-15T01:47:50.908Z,7.43
2019-03-15T01:50:21.425Z,5.87
2019-03-15T01:52:51.700Z,5.80
2019-03-15T01:55:40.534Z,6.67
2019-03-15T02:01:19.761Z,5.97
2019-03-15T02:20:25.238Z,5.67
2019-03-15T02:25:45.485Z,6.07
2019-03-15T02:28:26.524Z,5.03
2019-03-15T02:31:00.324Z,5.23
2019-03-15T02:33:49.561Z,4.50
2019-03-15T02:36:30.577Z,4.93
2019-03-15T02:39:06.119Z,5.20
2019-03-15T02:41:53.710Z,5.83
2019-03-15T02:44:23.548Z,4.90
2019-03-15T02:46:53.557Z,4.60
2019-03-15T02:49:31.790Z,5.07
2019-03-15T02:52:07.992Z,4.77
2019-03-15T02:54:42.353Z,5.33
2019-03-15T02:57:12.105Z,4.57
2019-03-15T03:02:29.456Z,4.73
2019-03-15T03:04:58.807Z,5.30
2019-03-15T03:07:31.048Z,5.00
2019-03-15T03:10:02.953Z,5.33
2019-03-15T03:12:33.628Z,5.23
2019-03-15T03:15:04.559Z,5.73
2019-03-15T03:17:37.517Z,4.90
2019-03-15T03:20:08.432Z,5.57
2019-03-15T03:22:38.896Z,5.07
2019-03-15T03:25:08.392Z,6.00
2019-03-15T03:27:40.870Z,5.23
2019-03-15T03:30:17.249Z,5.67
2019-03-15T03:32:46.484Z,5.53
2019-03-15T03:35:17.028Z,6.27
2019-03-15T03:37:46.334Z,5.97
2019-03-15T03:40:20.091Z,6.50
2019-03-15T03:42:49.737Z,6.27
2019-03-15T03:45:23.095Z,5.50
2019-03-15T03:47:51.794Z,7.03
2019-03-15T03:50:20.795Z,6.47
2019-03-15T03:52:52.106Z,5.97
2019-03-15T03:55:21.337Z,6.13
2019-03-15T03:57:50.327Z,6.00
2019-03-15T04:00:21.205Z,6.23
2019-03-15T04:02:53.134Z,6.67
2019-03-15T04:05:23.503Z,6.97
2019-03-15T04:07:54.240Z,7.00
2019-03-15T04:10:23.868Z,6.87
2019-03-15T04:12:54.262Z,6.23
2019-03-15T04:15:24.732Z,6.67
2019-03-15T04:17:53.955Z,5.97
2019-03-15T04:20:24.710Z,5.03
2019-03-15T04:22:55.540Z,5.00
2019-03-15T04:25:27.176Z,5.50
2019-03-15T04:27:56.512Z,4.70
2019-03-15T04:30:25.736Z,5.27
2019-03-15T04:32:54.973Z,5.23
2019-03-15T04:35:24.478Z,6.13
2019-03-15T04:37:53.857Z,4.80
2019-03-15T04:40:23.631Z,5.33
2019-03-15T04:42:53.801Z,4.77
2019-03-15T04:45:23.393Z,5.00
2019-03-15T04:47:54.031Z,4.80
2019-03-15T04:50:23.230Z,5.33
2019-03-15T04:52:53.512Z,4.87
2019-03-15T04:55:23.499Z,6.23
2019-03-15T04:57:52.805Z,6.10
2019-03-15T05:00:23.083Z,6.00
2019-03-15T05:02:53.013Z,6.10
2019-03-15T05:05:25.179Z,5.37
2019-03-15T05:07:57.965Z,5.53
2019-03-15T05:10:28.699Z,4.77
2019-03-15T05:12:59.587Z,4.50
2019-03-15T05:15:28.451Z,4.30
2019-03-15T05:17:57.864Z,4.70
2019-03-15T05:20:28.185Z,5.30
2019-03-15T05:22:57.132Z,4.83
2019-03-15T05:25:29.715Z,5.30
2019-03-15T05:28:01.849Z,4.93
2019-03-15T05:30:33.066Z,4.20
2019-03-15T05:33:02.926Z,4.93
2019-03-15T05:35:32.006Z,4.77
2019-03-15T05:38:01.747Z,4.77
2019-03-15T05:40:31.582Z,4.10
2019-03-15T05:43:00.933Z,4.83
2019-03-15T05:45:34.839Z,3.90
2019-03-15T05:48:06.411Z,4.63
2019-03-15T05:50:40.540Z,3.90
2019-03-15T05:53:08.190Z,4.40
2019-03-15T05:55:37.730Z,4.80
2019-03-15T05:58:08.916Z,4.37
2019-03-15T06:00:44.827Z,4.93
2019-03-15T06:03:13.875Z,5.43
2019-03-15T06:05:46.032Z,5.23
2019-03-15T06:08:15.540Z,5.70
2019-03-15T06:10:48.524Z,5.13
2019-03-15T06:13:19.507Z,6.63
2019-03-15T06:15:49.778Z,5.63
2019-03-15T06:18:22.432Z,5.70
2019-03-15T06:20:51.891Z,8.07
2019-03-15T06:23:20.947Z,6.07
2019-03-15T06:25:50.794Z,5.63
2019-03-15T06:28:20.023Z,5.93
2019-03-15T06:30:53.398Z,6.83
2019-03-15T06:33:24.517Z,6.37
2019-03-15T06:35:54.207Z,6.03
2019-03-15T06:38:24.247Z,5.60
2019-03-15T06:40:56.571Z,5.07
2019-03-15T06:43:27.811Z,5.07
2019-03-15T06:45:58.837Z,5.43
2019-03-15T06:48:32.057Z,5.47
2019-03-15T06:51:04.997Z,5.17
2019-03-15T06:53:37.696Z,4.97
2019-03-15T06:56:24.265Z,5.23
2019-03-15T06:58:53.672Z,5.37
2019-03-15T07:01:24.037Z,4.67
2019-03-15T07:06:48.761Z,5.13
2019-03-15T07:09:22.761Z,4.40
2019-03-15T07:14:52.265Z,3.83
2019-03-15T07:17:23.312Z,3.80
2019-03-15T07:22:55.072Z,5.30
2019-03-15T07:25:27.813Z,4.40
2019-03-15T07:27:58.992Z,5.10
2019-03-15T07:30:34.018Z,4.57
2019-03-15T07:36:31.608Z,3.97
2019-03-15T07:39:19.433Z,5.03
2019-03-15T07:41:54.323Z,3.90
2019-03-15T07:44:24.888Z,3.03
2019-03-15T07:47:08.087Z,3.30
2019-03-15T07:49:37.972Z,3.60
2019-03-15T07:52:11.310Z,3.73
2019-03-15T07:54:39.753Z,2.80
2019-03-15T07:57:08.749Z,2.77
2019-03-15T07:59:38.388Z,2.60
2019-03-15T08:02:10.763Z,2.33
2019-03-15T08:04:41.717Z,2.33
2019-03-15T08:07:10.734Z,2.50
2019-03-15T08:09:40.486Z,2.33
2019-03-15T08:12:12.377Z,2.17
2019-03-15T08:14:43.559Z,2.57
2019-03-15T08:17:13.344Z,2.10
2019-03-15T08:19:43.187Z,2.23
2019-03-15T08:22:22.287Z,2.30
2019-03-15T08:24:54.629Z,2.70
2019-03-15T08:27:26.738Z,2.20
2019-03-15T08:29:55.736Z,2.70
2019-03-15T08:32:26.772Z,2.63
2019-03-15T08:34:57.590Z,2.63
2019-03-15T08:37:27.821Z,2.53
2019-03-15T08:42:49.503Z,2.83
2019-03-15T08:45:29.715Z,2.87
2019-03-15T08:48:00.506Z,2.63
2019-03-15T08:50:49.419Z,2.30
2019-03-15T08:53:22.886Z,2.80
2019-03-15T08:55:52.377Z,2.57
2019-03-15T08:58:22.949Z,2.30
2019-03-15T09:00:59.292Z,2.37
2019-03-15T09:03:28.575Z,2.30
2019-03-15T09:18:55.360Z,3.03
2019-03-15T09:21:27.731Z,1.80
2019-03-15T09:23:57.482Z,1.80
2019-03-15T09:26:28.395Z,1.90
2019-03-15T09:29:06.593Z,1.60
2019-03-15T09:34:36.155Z,1.30
2019-03-15T09:40:04.624Z,1.73
2019-03-15T09:42:38.642Z,1.40
2019-03-15T09:45:15.385Z,1.83
2019-03-15T09:47:47.699Z,1.60
2019-03-15T09:50:33.247Z,1.40
2019-03-15T09:52:55.623Z,1.10
2019-03-15T09:55:33.320Z,1.40
2019-03-15T10:00:52.985Z,1.07
2019-03-15T10:03:22.849Z,1.30
2019-03-15T10:05:53.617Z,1.33
2019-03-15T10:08:23.753Z,1.13
2019-03-15T10:10:54.137Z,1.00
2019-03-15T10:13:29.730Z,1.10
2019-03-15T10:16:00.238Z,1.20
2019-03-15T10:18:30.627Z,0.90
2019-03-15T10:21:09.132Z,1.00
2019-03-15T10:23:39.592Z,1.07
2019-03-15T10:29:37.809Z,0.90
2019-03-15T10:32:11.689Z,1.07
2019-03-15T10:34:41.591Z,0.60
2019-03-15T10:37:22.207Z,0.50
2019-03-15T10:39:55.830Z,0.80
2019-03-15T10:42:25.218Z,0.80
2019-03-15T10:44:55.646Z,0.90
2019-03-15T10:47:24.933Z,0.83
2019-03-15T10:49:54.538Z,0.93
2019-03-15T10:52:25.877Z,0.97
2019-03-15T10:57:47.418Z,0.70
2019-03-15T11:00:26.494Z,0.50
2019-03-15T11:02:55.434Z,1.03
2019-03-15T11:05:27.296Z,0.80
2019-03-15T11:07:57.812Z,0.50
2019-03-15T11:10:26.731Z,1.30
2019-03-15T11:12:58.534Z,1.40
2019-03-15T11:15:31.006Z,0.93
2019-03-15T11:18:00.256Z,0.83
2019-03-15T11:20:32.346Z,0.93
2019-03-15T11:23:02.360Z,1.13
2019-03-15T11:25:32.768Z,1.57
2019-03-15T11:28:05.043Z,1.43
2019-03-15T11:30:35.932Z,1.67
2019-03-15T11:33:08.459Z,1.33
2019-03-15T11:35:40.563Z,0.90
2019-03-15T11:38:12.017Z,0.87
2019-03-15T11:40:42.571Z,1.00
2019-03-15T11:54:24.562Z,0.93
2019-03-15T11:56:58.724Z,1.37
2019-03-15T11:59:31.618Z,3.73
2019-03-15T12:02:04.378Z,2.57
2019-03-15T12:04:44.744Z,1.40
2019-03-15T12:07:21.154Z,1.20
2019-03-15T12:10:04.394Z,1.27
2019-03-15T12:12:34.510Z,1.20
2019-03-15T12:15:07.102Z,1.63
2019-03-15T12:21:04.045Z,1.37
2019-03-15T12:23:34.565Z,1.30
2019-03-15T12:26:04.167Z,1.23
2019-03-15T12:28:35.397Z,1.30
2019-03-15T12:31:06.262Z,1.80
2019-03-15T12:33:39.232Z,1.73
2019-03-15T12:36:08.628Z,1.50
2019-03-15T12:38:39.662Z,1.70
2019-03-15T12:41:10.706Z,1.10
2019-03-15T12:43:41.294Z,1.23
2019-03-15T12:46:11.338Z,1.50
2019-03-15T12:48:45.800Z,1.30
2019-03-15T12:51:31.303Z,1.80
2019-03-15T12:53:52.092Z,1.73
2019-03-15T12:56:22.220Z,1.30
2019-03-15T12:58:52.671Z,1.67
2019-03-15T13:01:21.613Z,1.90
2019-03-15T13:03:50.916Z,1.40
2019-03-15T13:06:19.927Z,1.33
2019-03-15T13:08:51.947Z,1.73
2019-03-15T13:11:20.709Z,2.30
2019-03-15T13:13:50.909Z,1.67
2019-03-15T13:16:21.922Z,1.47
2019-03-15T13:18:51.618Z,1.53
2019-03-15T13:21:24.807Z,1.70
2019-03-15T13:23:54.205Z,1.30
2019-03-15T13:26:28.868Z,1.93
2019-03-15T13:32:11.055Z,1.53
2019-03-15T13:34:42.635Z,1.80
2019-03-15T13:42:33.510Z,1.50
2019-03-15T13:45:08.014Z,1.50
2019-03-15T13:47:37.909Z,1.70
2019-03-15T13:50:14.025Z,1.70
2019-03-15T13:52:52.355Z,1.33
2019-03-15T13:55:22.459Z,1.87
2019-03-15T13:57:52.246Z,2.03
2019-03-15T14:00:43.776Z,2.00
2019-03-15T14:03:16.295Z,1.90
2019-03-15T14:05:49.909Z,2.23
2019-03-15T14:08:19.279Z,1.73
2019-03-15T14:10:49.989Z,1.97
2019-03-15T14:13:27.003Z,1.83
2019-03-15T14:20:17.169Z,1.60
2019-03-15T14:22:49.454Z,1.70
2019-03-15T14:25:37.388Z,1.60
2019-03-15T14:31:00.600Z,1.70
2019-03-15T14:33:39.113Z,1.90
2019-03-15T14:36:09.439Z,1.97
2019-03-15T14:38:44.434Z,1.67
2019-03-15T14:41:21.604Z,1.80
2019-03-15T14:43:54.457Z,1.73
2019-03-15T14:46:26.905Z,1.67
2019-03-15T14:49:04.515Z,2.33
2019-03-15T14:51:35.246Z,1.83
2019-03-15T14:54:09.898Z,1.80
2019-03-15T15:14:32.808Z,2.53
2019-03-15T15:17:09.102Z,2.00
2019-03-15T15:20:00.918Z,2.70
2019-03-15T15:25:20.356Z,2.20
2019-03-15T15:28:03.868Z,2.83
2019-03-15T15:30:27.610Z,2.07
2019-03-15T15:32:57.628Z,1.80
2019-03-15T15:35:28.487Z,2.50
2019-03-15T15:37:57.436Z,2.33
2019-03-15T15:40:26.519Z,1.87
2019-03-15T15:42:56.448Z,1.80
2019-03-15T15:45:25.439Z,2.07
2019-03-15T15:47:54.922Z,2.23
2019-03-15T15:50:27.039Z,2.00
2019-03-15T15:52:58.435Z,2.37
2019-03-15T15:55:30.355Z,3.43
2019-03-15T15:58:02.525Z,2.30
2019-03-15T16:00:33.248Z,2.17
2019-03-15T16:03:03.931Z,2.03
2019-03-15T16:05:34.202Z,2.20
2019-03-15T16:08:03.244Z,3.00
2019-03-15T16:10:32.145Z,2.20
2019-03-15T16:13:02.775Z,2.37
2019-03-15T16:15:31.877Z,1.83
2019-03-15T16:18:01.554Z,2.47
2019-03-15T16:20:30.521Z,2.17
2019-03-15T16:23:00.348Z,2.50
2019-03-15T16:28:08.570Z,2.70
2019-03-15T16:30:37.423Z,2.57
2019-03-15T16:38:48.508Z,2.50
2019-03-15T16:44:10.375Z,3.03
2019-03-15T16:46:41.011Z,2.03
2019-03-15T16:49:13.051Z,2.47
2019-03-15T16:54:35.267Z,2.23
2019-03-15T16:57:07.719Z,2.93
2019-03-15T16:59:36.811Z,2.70
2019-03-15T17:02:07.586Z,3.27
2019-03-15T17:04:43.059Z,3.10
2019-03-15T17:07:48.100Z,2.60
2019-03-15T17:23:26.186Z,2.97
2019-03-15T17:25:56.808Z,3.20
2019-03-15T17:34:00.600Z,3.03
2019-03-15T17:36:30.682Z,2.93
2019-03-15T17:41:50.889Z,2.60
2019-03-15T17:44:21.403Z,2.80
2019-03-15T17:47:11.221Z,2.77
2019-03-15T17:56:15.210Z,2.70
2019-03-15T18:11:27.660Z,2.50
2019-03-15T18:20:18.377Z,3.27
2019-03-15T18:26:23.455Z,2.73
2019-03-15T18:28:57.360Z,2.53
2019-03-15T18:31:32.998Z,2.63
2019-03-15T18:34:05.287Z,3.27
2019-03-15T18:36:42.944Z,2.60
2019-03-15T18:39:11.305Z,3.30
2019-03-15T18:58:01.905Z,4.40
2019-03-15T19:00:33.787Z,3.30
2019-03-15T19:03:07.883Z,3.70
2019-03-15T19:06:02.914Z,3.67
2019-03-15T19:08:32.839Z,4.20
2019-03-15T19:11:01.727Z,3.07
2019-03-15T19:13:30.552Z,3.27
2019-03-15T19:15:59.521Z,4.10
2019-03-15T19:18:30.878Z,3.77
2019-03-15T19:23:52.770Z,3.70
2019-03-15T19:29:25.456Z,4.00
2019-03-15T19:32:05.081Z,3.60
2019-03-15T19:37:14.812Z,4.10
2019-03-15T19:39:43.680Z,4.63
2019-03-15T19:42:45.017Z,3.97
2019-03-15T19:45:13.645Z,3.00
2019-03-15T19:50:31.970Z,4.80
2019-03-15T19:53:18.760Z,3.20
2019-03-15T19:55:47.544Z,3.70
2019-03-15T19:58:23.786Z,3.63
2019-03-15T20:04:23.152Z,3.73
2019-03-15T20:06:51.979Z,3.87
2019-03-15T20:09:21.762Z,5.90
2019-03-15T20:11:51.705Z,7.50
2019-03-15T20:18:01.562Z,3.30
2019-03-15T20:20:30.326Z,3.53
2019-03-15T20:23:01.996Z,3.47
2019-03-15T20:25:31.489Z,2.90
2019-03-15T20:28:04.152Z,3.50
2019-03-15T20:30:34.302Z,3.73
2019-03-15T20:33:04.683Z,3.83
2019-03-15T20:35:33.543Z,4.20
2019-03-15T20:38:02.353Z,4.23
2019-03-15T20:40:31.248Z,4.17
2019-03-15T20:43:00.081Z,4.63
2019-03-15T20:45:30.254Z,3.43
2019-03-15T20:47:59.222Z,3.47
2019-03-15T20:50:28.039Z,2.87
2019-03-15T20:53:07.748Z,2.90
2019-03-15T20:55:28.922Z,2.83
2019-03-15T20:57:58.174Z,3.43
2019-03-15T21:00:35.519Z,3.60
2019-03-15T21:02:57.631Z,3.90
2019-03-15T21:05:26.568Z,3.60
2019-03-15T21:07:55.996Z,4.17
2019-03-15T21:10:26.381Z,3.43
2019-03-15T21:12:55.246Z,2.50
2019-03-15T21:15:24.024Z,3.47
2019-03-15T21:17:54.309Z,3.20
2019-03-15T21:20:23.161Z,4.87
2019-03-15T21:22:52.999Z,4.10
2019-03-15T21:25:21.836Z,3.90
2019-03-15T21:27:54.625Z,2.80
2019-03-15T21:30:25.524Z,2.93
2019-03-15T21:32:54.456Z,4.00
2019-03-15T21:35:23.954Z,2.60
2019-03-15T21:37:52.778Z,3.30
2019-03-15T21:40:24.553Z,4.07
2019-03-15T21:42:53.393Z,3.30
2019-03-15T21:45:23.143Z,3.50
2019-03-15T21:47:53.857Z,3.70
2019-03-15T21:50:23.491Z,2.87
2019-03-15T21:52:52.397Z,2.73
2019-03-15T21:55:21.201Z,2.77
2019-03-15T21:57:50.059Z,2.93
2019-03-15T22:00:19.655Z,3.20
2019-03-15T22:02:48.470Z,3.43
2019-03-15T22:05:17.326Z,3.13
2019-03-15T22:07:47.138Z,2.90
2019-03-15T22:10:17.117Z,3.33
2019-03-15T22:12:45.945Z,2.60
2019-03-15T22:15:14.956Z,3.07
2019-03-15T22:17:52.798Z,2.67
2019-03-15T22:20:22.314Z,2.33
2019-03-15T22:22:53.553Z,3.00
2019-03-15T22:25:22.410Z,3.53
2019-03-15T22:28:08.671Z,3.03
2019-03-15T22:30:38.669Z,2.40
2019-03-15T22:33:12.512Z,2.73
2019-03-15T22:35:41.536Z,2.70
2019-03-15T22:38:10.353Z,2.83
2019-03-15T22:40:39.344Z,2.10
2019-03-15T22:43:09.444Z,2.13
2019-03-15T22:45:44.340Z,2.47
2019-03-15T22:48:14.102Z,2.73
2019-03-15T22:50:45.419Z,2.80
2019-03-15T22:53:14.797Z,2.10
2019-03-15T22:55:44.615Z,2.57
2019-03-15T22:58:13.405Z,2.73
2019-03-15T23:00:42.382Z,3.27
2019-03-15T23:03:11.426Z,2.67
2019-03-15T23:05:40.311Z,2.60
2019-03-15T23:08:09.135Z,3.47
2019-03-15T23:10:38.088Z,2.80
2019-03-15T23:13:11.633Z,3.23
2019-03-15T23:15:45.672Z,2.80
2019-03-15T23:18:14.569Z,2.60
2019-03-15T23:20:43.429Z,2.80
2019-03-15T23:23:23.371Z,3.37
2019-03-15T23:25:42.923Z,3.20
2019-03-15T23:28:11.869Z,2.97
2019-03-15T23:30:41.066Z,3.30
2019-03-15T23:33:10.004Z,4.30
2019-03-15T23:35:53.611Z,3.97
2019-03-15T23:38:10.248Z,5.33
2019-03-15T23:40:39.072Z,6.00
2019-03-15T23:43:07.990Z,3.60
2019-03-15T23:45:36.879Z,4.03
2019-03-15T23:48:07.902Z,4.53
2019-03-15T23:50:36.724Z,3.10
2019-03-15T23:53:06.639Z,3.43
2019-03-15T23:55:35.579Z,3.70
2019-03-15T23:58:05.876Z,3.80
